New Smyrna, Florida
Current Conditions -  °F | °C
As of 1:47 PM on Monday 20 Oct 2014 (Local Time) from KEVB Reporting Station
Scattered Clouds Scattered Clouds  
Wind Chill: 81°   Ceiling: Unl
Heat Index: 83°   Visibility: 10mi
Dew Point: 68°   Wind: 12mph
Humidity: 65%   Direction: 90°E
Pressure: 30.02"   Gusts: 16mph
Location:  28.9963°N, 80.8761°W
Report Text: KEVB 201747Z 09010G14KT 10SM SCT026 27/20 A3002
Loading
Personal Weather Stations






























Interactive Weather Map
Tropical Storm Tracking
New forecast layout! Learn more

10-Day Weather Forecast

Advertisements
Track Severe Weather on mobile